LiveATC.Net - Listen to live air traffic control over the Internet!


ICAO: KFSD  IATA: FSD   Airport: Joe Foss Field Airport
City: Sioux Falls   State/Province: South Dakota
Country: United States   Continent: North America
KFSD METAR Weather: KFSD 171256Z 04006KT 10SM CLR 18/15 A3016 RMK AO2 SLP207 T01780150
KFSD ADS-B Flight Tracking  (ADSBExchange)
KFSD Flight Activity (FlightAware)
KFSD Airport Info   (iFlightPlanner)
KFSD VFR Sectional Chart   (iFlightPlanner) 
KFSD IFR Low Altitude Chart   (iFlightPlanner) 
KFSD IFR High Altitude Chart   (iFlightPlanner) 

KFSD Twr/App/Dep/ZMP
Feed Status: DOWN
Last heard on: 2024-07-17 04:15:39 (0 days 8 hours 59 minutes ago)
Archive Access: KFSD Twr/App/Dep/ZMP
FacilityFrequency
Minneapolis Center (Sector 33 PIR Low)132.050
Sioux Falls Approach/Departure125.800
Sioux Falls Tower118.300

NOTICE

Unauthorized use prohibited. See LiveATC.net Terms of Service


Airport/ARTCC Code
Frequency Search
(e.g., 124.400, 128.75)
Site-wide search
 


Browse Feeds
Top 50 Feeds
HF Oceanic Feeds
Coverage Map
Bad Weather Areas

LiveATC FAQ

Increase Coverage

Contact LiveATC.net
Press Inquiries

LiveATC on iPhone
LiveATC on Android

LiveATC Mobile
(Mobile browser)

ATC Audio Archives
Interesting Recordings

LiveATC Forums


Home Page
About LiveATC.net


Terms of Use
Privacy Policy

AIRMETs/SIGMETs

FAA Airport Status
NAS Status
Arrival Demand


Server Software By:
Icecast.org
Liquidsoap